sensor_id;sensor_type;location;lat;lon;timestamp;temperature;humidity
1534;DHT22;760;48.822;9.304;2023-02-01T05:06:15;5.50;99.90
1534;DHT22;760;48.822;9.304;2023-02-01T05:08:41;5.50;99.90
1534;DHT22;760;48.822;9.304;2023-02-01T05:11:06;5.50;99.90
1534;DHT22;760;48.822;9.304;2023-02-01T05:13:52;5.50;99.90
1534;DHT22;760;48.822;9.304;2023-02-01T05:16:18;5.50;99.90
1534;DHT22;760;48.822;9.304;2023-02-01T05:18:43;5.40;99.90
1534;DHT22;760;48.822;9.304;2023-02-01T05:21:09;5.40;99.90
1534;DHT22;760;48.822;9.304;2023-02-01T05:23:34;5.40;99.90
1534;DHT22;760;48.822;9.304;2023-02-01T05:26:23;5.40;99.90
1534;DHT22;760;48.822;9.304;2023-02-01T05:28:49;5.50;99.90
1534;DHT22;760;48.822;9.304;2023-02-01T05:31:14;5.50;99.90
1534;DHT22;760;48.822;9.304;2023-02-01T05:33:40;5.50;99.90
1534;DHT22;760;48.822;9.304;2023-02-01T05:36:06;5.50;99.90
1534;DHT22;760;48.822;9.304;2023-02-01T05:38:32;5.50;99.90
1534;DHT22;760;48.822;9.304;2023-02-01T05:40:57;5.60;99.90
1534;DHT22;760;48.822;9.304;2023-02-01T05:43:23;5.60;99.90
1534;DHT22;760;48.822;9.304;2023-02-01T05:45:48;5.60;99.90
1534;DHT22;760;48.822;9.304;2023-02-01T05:48:14;5.60;99.90
1534;DHT22;760;48.822;9.304;2023-02-01T05:50:40;5.60;99.90
1534;DHT22;760;48.822;9.304;2023-02-01T05:53:05;5.70;99.90
1534;DHT22;760;48.822;9.304;2023-02-01T05:55:32;5.70;99.90
1534;DHT22;760;48.822;9.304;2023-02-01T05:57:57;5.70;99.90
1534;DHT22;760;48.822;9.304;2023-02-01T06:00:23;5.70;99.90
1534;DHT22;760;48.822;9.304;2023-02-01T06:02:48;5.70;99.90
1534;DHT22;760;48.822;9.304;2023-02-01T06:05:14;5.70;99.90
1534;DHT22;760;48.822;9.304;2023-02-01T06:07:40;5.80;99.90
1534;DHT22;760;48.822;9.304;2023-02-01T06:10:06;5.70;99.90
1534;DHT22;760;48.822;9.304;2023-02-01T06:12:32;5.70;99.90
1534;DHT22;760;48.822;9.304;2023-02-01T06:14:57;5.70;99.90
1534;DHT22;760;48.822;9.304;2023-02-01T06:17:24;5.70;99.90
1534;DHT22;760;48.822;9.304;2023-02-01T06:19:50;5.70;99.90
1534;DHT22;760;48.822;9.304;2023-02-01T06:22:15;5.70;99.90
1534;DHT22;760;48.822;9.304;2023-02-01T06:24:41;5.70;99.90
1534;DHT22;760;48.822;9.304;2023-02-01T06:27:07;5.70;99.90
1534;DHT22;760;48.822;9.304;2023-02-01T06:29:34;5.70;99.90
1534;DHT22;760;48.822;9.304;2023-02-01T06:32:00;5.70;99.90
1534;DHT22;760;48.822;9.304;2023-02-01T06:34:26;5.70;99.90
1534;DHT22;760;48.822;9.304;2023-02-01T06:36:51;5.70;99.90
1534;DHT22;760;48.822;9.304;2023-02-01T06:39:17;5.70;99.90
1534;DHT22;760;48.822;9.304;2023-02-01T06:41:48;5.70;99.90
1534;DHT22;760;48.822;9.304;2023-02-01T06:44:15;5.70;99.90
1534;DHT22;760;48.822;9.304;2023-02-01T06:46:40;5.80;99.90
1534;DHT22;760;48.822;9.304;2023-02-01T06:49:06;5.80;99.90
1534;DHT22;760;48.822;9.304;2023-02-01T06:51:32;5.80;99.90
1534;DHT22;760;48.822;9.304;2023-02-01T06:53:57;5.80;99.90
1534;DHT22;760;48.822;9.304;2023-02-01T06:56:24;5.80;99.90
1534;DHT22;760;48.822;9.304;2023-02-01T06:58:49;5.80;99.90
1534;DHT22;760;48.822;9.304;2023-02-01T07:01:15;5.80;99.90
1534;DHT22;760;48.822;9.304;2023-02-01T07:03:41;5.80;99.90
1534;DHT22;760;48.822;9.304;2023-02-01T07:06:08;5.90;99.90
1534;DHT22;760;48.822;9.304;2023-02-01T07:08:36;5.90;99.90
1534;DHT22;760;48.822;9.304;2023-02-01T07:11:08;6.00;99.90
1534;DHT22;760;48.822;9.304;2023-02-01T07:13:35;6.00;99.90
1534;DHT22;760;48.822;9.304;2023-02-01T07:16:02;6.00;99.90
1534;DHT22;760;48.822;9.304;2023-02-01T07:18:30;6.00;99.90
1534;DHT22;760;48.822;9.304;2023-02-01T07:20:56;6.00;99.90
1534;DHT22;760;48.822;9.304;2023-02-01T07:23:22;6.00;99.90
1534;DHT22;760;48.822;9.304;2023-02-01T07:25:48;6.00;99.90
1534;DHT22;760;48.822;9.304;2023-02-01T07:28:14;6.00;99.90
1534;DHT22;760;48.822;9.304;2023-02-01T07:30:40;6.10;99.90
1534;DHT22;760;48.822;9.304;2023-02-01T07:33:06;6.10;99.90
1534;DHT22;760;48.822;9.304;2023-02-01T07:35:32;6.10;99.90
1534;DHT22;760;48.822;9.304;2023-02-01T07:37:58;6.10;99.90
1534;DHT22;760;48.822;9.304;2023-02-01T07:40:24;6.10;99.90
1534;DHT22;760;48.822;9.304;2023-02-01T07:42:54;6.10;99.90
1534;DHT22;760;48.822;9.304;2023-02-01T07:45:21;6.10;99.90
1534;DHT22;760;48.822;9.304;2023-02-01T07:47:46;6.20;99.90
1534;DHT22;760;48.822;9.304;2023-02-01T07:50:12;6.20;99.90
1534;DHT22;760;48.822;9.304;2023-02-01T07:52:38;6.20;99.90
1534;DHT22;760;48.822;9.304;2023-02-01T07:55:05;6.30;99.90
1534;DHT22;760;48.822;9.304;2023-02-01T07:57:31;6.30;99.90
1534;DHT22;760;48.822;9.304;2023-02-01T07:59:57;6.20;99.90
1534;DHT22;760;48.822;9.304;2023-02-01T08:02:41;6.30;99.90
1534;DHT22;760;48.822;9.304;2023-02-01T08:05:07;6.30;99.90
1534;DHT22;760;48.822;9.304;2023-02-01T08:07:33;6.40;99.90
1534;DHT22;760;48.822;9.304;2023-02-01T08:09:58;6.40;99.90
1534;DHT22;760;48.822;9.304;2023-02-01T08:12:25;6.30;99.90
1534;DHT22;760;48.822;9.304;2023-02-01T08:14:52;6.30;99.90
1534;DHT22;760;48.822;9.304;2023-02-01T08:17:19;6.30;99.90
1534;DHT22;760;48.822;9.304;2023-02-01T08:19:44;6.40;99.90
1534;DHT22;760;48.822;9.304;2023-02-01T08:22:10;6.40;99.90
1534;DHT22;760;48.822;9.304;2023-02-01T08:24:35;6.40;99.90
1534;DHT22;760;48.822;9.304;2023-02-01T08:27:04;6.50;99.90
1534;DHT22;760;48.822;9.304;2023-02-01T08:29:30;6.50;99.90
1534;DHT22;760;48.822;9.304;2023-02-01T08:31:55;6.60;99.90
1534;DHT22;760;48.822;9.304;2023-02-01T08:34:21;6.70;99.90
1534;DHT22;760;48.822;9.304;2023-02-01T08:36:47;6.80;99.90
1534;DHT22;760;48.822;9.304;2023-02-01T08:39:12;6.90;99.90
1534;DHT22;760;48.822;9.304;2023-02-01T08:41:38;7.00;99.90
1534;DHT22;760;48.822;9.304;2023-02-01T08:44:04;7.10;99.90
1534;DHT22;760;48.822;9.304;2023-02-01T08:46:30;7.10;99.90
1534;DHT22;760;48.822;9.304;2023-02-01T08:48:55;7.20;99.90
1534;DHT22;760;48.822;9.304;2023-02-01T08:51:22;7.20;99.90
1534;DHT22;760;48.822;9.304;2023-02-01T08:53:48;7.20;99.90
1534;DHT22;760;48.822;9.304;2023-02-01T08:56:16;7.20;99.90
1534;DHT22;760;48.822;9.304;2023-02-01T08:58:42;7.20;99.90
1534;DHT22;760;48.822;9.304;2023-02-01T09:01:14;7.20;99.90
1534;DHT22;760;48.822;9.304;2023-02-01T09:03:40;7.20;99.90
1534;DHT22;760;48.822;9.304;2023-02-01T09:06:08;7.20;99.90
1534;DHT22;760;48.822;9.304;2023-02-01T09:08:35;7.10;99.90
1534;DHT22;760;48.822;9.304;2023-02-01T09:11:03;7.10;99.90
1534;DHT22;760;48.822;9.304;2023-02-01T09:13:29;7.10;99.90
1534;DHT22;760;48.822;9.304;2023-02-01T09:15:54;7.10;99.90
1534;DHT22;760;48.822;9.304;2023-02-01T09:18:20;7.10;99.90
1534;DHT22;760;48.822;9.304;2023-02-01T09:20:46;7.10;99.90
1534;DHT22;760;48.822;9.304;2023-02-01T09:23:11;7.10;99.90
1534;DHT22;760;48.822;9.304;2023-02-01T09:25:38;7.20;99.90
1534;DHT22;760;48.822;9.304;2023-02-01T09:28:04;7.20;99.90
1534;DHT22;760;48.822;9.304;2023-02-01T09:30:32;7.20;99.90
1534;DHT22;760;48.822;9.304;2023-02-01T09:32:58;7.20;99.90
1534;DHT22;760;48.822;9.304;2023-02-01T09:35:24;7.20;99.90
1534;DHT22;760;48.822;9.304;2023-02-01T09:37:52;7.20;99.90
1534;DHT22;760;48.822;9.304;2023-02-01T09:40:18;7.20;99.90
1534;DHT22;760;48.822;9.304;2023-02-01T09:48:28;7.50;99.90
1534;DHT22;760;48.822;9.304;2023-02-01T09:50:56;7.60;99.90
1534;DHT22;760;48.822;9.304;2023-02-01T09:53:29;7.70;99.90
1534;DHT22;760;48.822;9.304;2023-02-01T09:56:18;7.70;99.90
1534;DHT22;760;48.822;9.304;2023-02-01T09:59:01;7.70;99.90
1534;DHT22;760;48.822;9.304;2023-02-01T10:01:29;7.80;99.90
1534;DHT22;760;48.822;9.304;2023-02-01T10:04:08;7.80;99.90
1534;DHT22;760;48.822;9.304;2023-02-01T10:20:30;7.90;99.90
1534;DHT22;760;48.822;9.304;2023-02-01T10:23:22;8.10;99.90
1534;DHT22;760;48.822;9.304;2023-02-01T10:25:56;8.20;99.90
1534;DHT22;760;48.822;9.304;2023-02-01T10:28:25;8.50;99.90
1534;DHT22;760;48.822;9.304;2023-02-01T10:30:54;8.70;99.90
1534;DHT22;760;48.822;9.304;2023-02-01T10:33:30;8.80;99.90
1534;DHT22;760;48.822;9.304;2023-02-01T10:36:11;8.90;99.90
1534;DHT22;760;48.822;9.304;2023-02-01T10:38:38;9.10;99.90
1534;DHT22;760;48.822;9.304;2023-02-01T10:41:23;9.20;99.90
1534;DHT22;760;48.822;9.304;2023-02-01T10:43:54;9.20;99.90
1534;DHT22;760;48.822;9.304;2023-02-01T10:46:23;9.20;99.90
1534;DHT22;760;48.822;9.304;2023-02-01T10:48:50;9.00;99.90
1534;DHT22;760;48.822;9.304;2023-02-01T10:51:21;8.90;99.90
1534;DHT22;760;48.822;9.304;2023-02-01T10:53:55;8.80;99.90
1534;DHT22;760;48.822;9.304;2023-02-01T10:56:24;8.60;99.90
1534;DHT22;760;48.822;9.304;2023-02-01T10:58:50;8.50;99.90
1534;DHT22;760;48.822;9.304;2023-02-01T11:01:22;8.40;99.90
1534;DHT22;760;48.822;9.304;2023-02-01T11:03:55;8.30;99.90
1534;DHT22;760;48.822;9.304;2023-02-01T11:06:35;8.30;99.90
1534;DHT22;760;48.822;9.304;2023-02-01T11:09:14;8.20;99.90
1534;DHT22;760;48.822;9.304;2023-02-01T11:14:35;8.20;99.90
1534;DHT22;760;48.822;9.304;2023-02-01T11:17:12;8.20;99.90
1534;DHT22;760;48.822;9.304;2023-02-01T11:19:45;8.20;99.90
1534;DHT22;760;48.822;9.304;2023-02-01T11:22:13;8.20;99.90
1534;DHT22;760;48.822;9.304;2023-02-01T11:24:40;8.20;99.90
1534;DHT22;760;48.822;9.304;2023-02-01T11:27:22;8.20;99.90
1534;DHT22;760;48.822;9.304;2023-02-01T11:29:51;8.30;99.90
1534;DHT22;760;48.822;9.304;2023-02-01T11:32:20;8.20;99.90
1534;DHT22;760;48.822;9.304;2023-02-01T11:34:57;8.30;99.90
1534;DHT22;760;48.822;9.304;2023-02-01T11:37:29;8.30;99.90
1534;DHT22;760;48.822;9.304;2023-02-01T11:39:57;8.40;99.90
1534;DHT22;760;48.822;9.304;2023-02-01T11:42:24;8.40;99.90
1534;DHT22;760;48.822;9.304;2023-02-01T11:44:50;8.40;99.90
1534;DHT22;760;48.822;9.304;2023-02-01T11:47:24;8.50;99.90
1534;DHT22;760;48.822;9.304;2023-02-01T11:50:05;8.50;99.90
1534;DHT22;760;48.822;9.304;2023-02-01T11:55:38;8.50;99.90
1534;DHT22;760;48.822;9.304;2023-02-01T12:00:59;8.50;99.90
1534;DHT22;760;48.822;9.304;2023-02-01T12:03:53;8.50;99.90
1534;DHT22;760;48.822;9.304;2023-02-01T12:06:56;8.40;99.90
1534;DHT22;760;48.822;9.304;2023-02-01T12:09:29;8.40;99.90
1534;DHT22;760;48.822;9.304;2023-02-01T12:23:19;8.30;99.90
1534;DHT22;760;48.822;9.304;2023-02-01T12:26:05;8.20;99.90
1534;DHT22;760;48.822;9.304;2023-02-01T12:28:53;8.20;99.90
1534;DHT22;760;48.822;9.304;2023-02-01T12:31:42;8.10;99.90
1534;DHT22;760;48.822;9.304;2023-02-01T12:36:56;8.00;99.90
1534;DHT22;760;48.822;9.304;2023-02-01T12:39:48;8.00;99.90
1534;DHT22;760;48.822;9.304;2023-02-01T12:45:45;8.00;99.90
1534;DHT22;760;48.822;9.304;2023-02-01T12:48:27;8.10;99.90
1534;DHT22;760;48.822;9.304;2023-02-01T12:50:56;8.00;99.90
1534;DHT22;760;48.822;9.304;2023-02-01T12:56:07;8.00;99.90
1534;DHT22;760;48.822;9.304;2023-02-01T12:58:58;7.90;99.90
1534;DHT22;760;48.822;9.304;2023-02-01T13:01:39;7.80;99.90
1534;DHT22;760;48.822;9.304;2023-02-01T13:04:17;7.70;99.90
1534;DHT22;760;48.822;9.304;2023-02-01T13:06:55;7.70;99.90
1534;DHT22;760;48.822;9.304;2023-02-01T13:12:04;7.60;99.90
1534;DHT22;760;48.822;9.304;2023-02-01T13:14:46;7.60;99.90
1534;DHT22;760;48.822;9.304;2023-02-01T13:17:19;7.50;99.90
1534;DHT22;760;48.822;9.304;2023-02-01T13:20:05;7.40;99.90
1534;DHT22;760;48.822;9.304;2023-02-01T13:22:38;7.30;99.90
1534;DHT22;760;48.822;9.304;2023-02-01T13:28:27;7.30;99.90
1534;DHT22;760;48.822;9.304;2023-02-01T13:44:48;7.40;99.90
1534;DHT22;760;48.822;9.304;2023-02-01T13:47:33;7.40;99.90
1534;DHT22;760;48.822;9.304;2023-02-01T13:51:03;7.40;99.90
1534;DHT22;760;48.822;9.304;2023-02-01T13:55:38;7.40;99.90
1534;DHT22;760;48.822;9.304;2023-02-01T13:58:22;7.40;99.90
1534;DHT22;760;48.822;9.304;2023-02-01T14:09:14;7.60;99.90
1534;DHT22;760;48.822;9.304;2023-02-01T14:19:32;7.40;99.90
1534;DHT22;760;48.822;9.304;2023-02-01T14:24:33;7.40;99.90
1534;DHT22;760;48.822;9.304;2023-02-01T14:27:22;7.50;99.90
1534;DHT22;760;48.822;9.304;2023-02-01T14:30:07;7.40;99.90
1534;DHT22;760;48.822;9.304;2023-02-01T14:32:40;7.40;99.90
1534;DHT22;760;48.822;9.304;2023-02-01T14:35:20;7.40;99.90
1534;DHT22;760;48.822;9.304;2023-02-01T14:37:50;7.40;99.90
1534;DHT22;760;48.822;9.304;2023-02-01T14:40:20;7.40;99.90
1534;DHT22;760;48.822;9.304;2023-02-01T14:42:50;7.30;99.90
1534;DHT22;760;48.822;9.304;2023-02-01T14:47:46;7.40;99.90
1534;DHT22;760;48.822;9.304;2023-02-01T14:50:27;7.40;99.90
1534;DHT22;760;48.822;9.304;2023-02-01T14:58:29;7.50;99.90
1534;DHT22;760;48.822;9.304;2023-02-01T15:00:59;7.50;99.90
1534;DHT22;760;48.822;9.304;2023-02-01T15:03:36;7.50;99.90
1534;DHT22;760;48.822;9.304;2023-02-01T15:06:04;7.50;99.90
1534;DHT22;760;48.822;9.304;2023-02-01T15:08:34;7.40;99.90
1534;DHT22;760;48.822;9.304;2023-02-01T15:11:05;7.40;99.90
1534;DHT22;760;48.822;9.304;2023-02-01T15:13:33;7.40;99.90
1534;DHT22;760;48.822;9.304;2023-02-01T15:16:04;7.40;99.90
1534;DHT22;760;48.822;9.304;2023-02-01T15:18:30;7.40;99.90
1534;DHT22;760;48.822;9.304;2023-02-01T15:20:57;7.40;99.90
1534;DHT22;760;48.822;9.304;2023-02-01T15:23:24;7.30;99.90
1534;DHT22;760;48.822;9.304;2023-02-01T15:25:50;7.30;99.90
1534;DHT22;760;48.822;9.304;2023-02-01T15:28:16;7.30;99.90
1534;DHT22;760;48.822;9.304;2023-02-01T15:31:02;7.30;99.90
1534;DHT22;760;48.822;9.304;2023-02-01T15:33:29;7.30;99.90
1534;DHT22;760;48.822;9.304;2023-02-01T15:38:43;7.30;99.90
1534;DHT22;760;48.822;9.304;2023-02-01T15:41:17;7.30;99.90
1534;DHT22;760;48.822;9.304;2023-02-01T15:43:44;7.30;99.90
1534;DHT22;760;48.822;9.304;2023-02-01T15:46:21;7.30;99.90
1534;DHT22;760;48.822;9.304;2023-02-01T15:48:52;7.30;99.90
1534;DHT22;760;48.822;9.304;2023-02-01T15:51:24;7.30;99.90
1534;DHT22;760;48.822;9.304;2023-02-01T15:53:53;7.30;99.90
1534;DHT22;760;48.822;9.304;2023-02-01T15:56:28;7.20;99.90
1534;DHT22;760;48.822;9.304;2023-02-01T15:58:58;7.20;99.90
1534;DHT22;760;48.822;9.304;2023-02-01T16:01:24;7.20;99.90
1534;DHT22;760;48.822;9.304;2023-02-01T16:04:16;7.20;99.90
1534;DHT22;760;48.822;9.304;2023-02-01T16:06:59;7.20;99.90
1534;DHT22;760;48.822;9.304;2023-02-01T16:09:53;7.20;99.90
1534;DHT22;760;48.822;9.304;2023-02-01T16:14:56;7.20;99.90
1534;DHT22;760;48.822;9.304;2023-02-01T16:17:21;7.20;99.90
1534;DHT22;760;48.822;9.304;2023-02-01T16:19:47;7.20;99.90
1534;DHT22;760;48.822;9.304;2023-02-01T16:22:12;7.20;99.90
1534;DHT22;760;48.822;9.304;2023-02-01T16:24:38;7.20;99.90
1534;DHT22;760;48.822;9.304;2023-02-01T16:27:04;7.10;99.90
1534;DHT22;760;48.822;9.304;2023-02-01T16:29:32;7.10;99.90
1534;DHT22;760;48.822;9.304;2023-02-01T16:31:58;7.10;99.90
1534;DHT22;760;48.822;9.304;2023-02-01T16:34:25;7.10;99.90
1534;DHT22;760;48.822;9.304;2023-02-01T16:36:50;7.10;99.90
1534;DHT22;760;48.822;9.304;2023-02-01T16:39:18;7.10;99.90
1534;DHT22;760;48.822;9.304;2023-02-01T16:41:44;7.10;99.90
1534;DHT22;760;48.822;9.304;2023-02-01T16:44:10;7.10;99.90
1534;DHT22;760;48.822;9.304;2023-02-01T16:46:40;7.10;99.90
1534;DHT22;760;48.822;9.304;2023-02-01T16:49:08;7.10;99.90
1534;DHT22;760;48.822;9.304;2023-02-01T16:51:41;7.10;99.90
1534;DHT22;760;48.822;9.304;2023-02-01T16:54:08;7.10;99.90
1534;DHT22;760;48.822;9.304;2023-02-01T16:56:34;7.10;99.90
1534;DHT22;760;48.822;9.304;2023-02-01T16:59:01;7.10;99.90
1534;DHT22;760;48.822;9.304;2023-02-01T17:01:27;7.00;99.90
1534;DHT22;760;48.822;9.304;2023-02-01T17:03:52;7.00;99.90
1534;DHT22;760;48.822;9.304;2023-02-01T17:06:20;6.90;99.90
1534;DHT22;760;48.822;9.304;2023-02-01T17:08:52;6.90;99.90
1534;DHT22;760;48.822;9.304;2023-02-01T17:11:19;6.80;99.90
1534;DHT22;760;48.822;9.304;2023-02-01T17:13:44;6.70;99.90
1534;DHT22;760;48.822;9.304;2023-02-01T17:16:30;6.70;99.90
1534;DHT22;760;48.822;9.304;2023-02-01T17:19:03;6.70;99.90
1534;DHT22;760;48.822;9.304;2023-02-01T17:21:44;6.60;99.90
1534;DHT22;760;48.822;9.304;2023-02-01T17:24:13;6.60;99.90
1534;DHT22;760;48.822;9.304;2023-02-01T17:26:40;6.60;99.90
1534;DHT22;760;48.822;9.304;2023-02-01T17:29:05;6.60;99.90
1534;DHT22;760;48.822;9.304;2023-02-01T17:31:33;6.60;99.90
1534;DHT22;760;48.822;9.304;2023-02-01T17:34:00;6.60;99.90
1534;DHT22;760;48.822;9.304;2023-02-01T17:36:26;6.70;99.90
1534;DHT22;760;48.822;9.304;2023-02-01T17:38:51;6.70;99.90
1534;DHT22;760;48.822;9.304;2023-02-01T17:41:17;6.80;99.90
1534;DHT22;760;48.822;9.304;2023-02-01T17:43:42;6.80;99.90
1534;DHT22;760;48.822;9.304;2023-02-01T17:46:14;6.90;99.90
1534;DHT22;760;48.822;9.304;2023-02-01T17:48:40;6.90;99.90
1534;DHT22;760;48.822;9.304;2023-02-01T17:51:18;6.90;99.90
1534;DHT22;760;48.822;9.304;2023-02-01T17:53:44;7.00;99.90
1534;DHT22;760;48.822;9.304;2023-02-01T17:56:19;7.00;99.90
1534;DHT22;760;48.822;9.304;2023-02-01T17:58:46;7.00;99.90
1534;DHT22;760;48.822;9.304;2023-02-01T18:01:14;7.00;99.90
1534;DHT22;760;48.822;9.304;2023-02-01T18:03:40;7.00;99.90
1534;DHT22;760;48.822;9.304;2023-02-01T18:06:14;7.00;99.90
1534;DHT22;760;48.822;9.304;2023-02-01T18:08:40;7.00;99.90
1534;DHT22;760;48.822;9.304;2023-02-01T18:11:12;7.00;99.90
1534;DHT22;760;48.822;9.304;2023-02-01T18:13:39;7.00;99.90
1534;DHT22;760;48.822;9.304;2023-02-01T18:16:05;7.00;99.90
1534;DHT22;760;48.822;9.304;2023-02-01T18:18:31;7.00;99.90
1534;DHT22;760;48.822;9.304;2023-02-01T18:20:58;7.00;99.90
1534;DHT22;760;48.822;9.304;2023-02-01T18:23:24;7.00;99.90
1534;DHT22;760;48.822;9.304;2023-02-01T18:25:51;7.00;99.90
1534;DHT22;760;48.822;9.304;2023-02-01T18:28:17;7.10;99.90
1534;DHT22;760;48.822;9.304;2023-02-01T18:30:48;7.00;99.90
1534;DHT22;760;48.822;9.304;2023-02-01T18:33:17;7.00;99.90
1534;DHT22;760;48.822;9.304;2023-02-01T18:35:43;7.10;99.90
1534;DHT22;760;48.822;9.304;2023-02-01T18:38:09;7.10;99.90
1534;DHT22;760;48.822;9.304;2023-02-01T18:40:38;7.00;99.90
1534;DHT22;760;48.822;9.304;2023-02-01T18:43:04;7.00;99.90
1534;DHT22;760;48.822;9.304;2023-02-01T18:45:34;7.10;99.90
1534;DHT22;760;48.822;9.304;2023-02-01T18:48:01;7.10;99.90
1534;DHT22;760;48.822;9.304;2023-02-01T18:50:32;7.10;99.90
1534;DHT22;760;48.822;9.304;2023-02-01T18:53:00;7.10;99.90
1534;DHT22;760;48.822;9.304;2023-02-01T18:55:26;7.10;99.90
1534;DHT22;760;48.822;9.304;2023-02-01T18:57:53;7.10;99.90
1534;DHT22;760;48.822;9.304;2023-02-01T19:00:20;7.10;99.90
1534;DHT22;760;48.822;9.304;2023-02-01T19:02:46;7.10;99.90
1534;DHT22;760;48.822;9.304;2023-02-01T19:05:12;7.10;99.90
1534;DHT22;760;48.822;9.304;2023-02-01T19:07:39;7.10;99.90
1534;DHT22;760;48.822;9.304;2023-02-01T19:10:07;7.10;99.90
1534;DHT22;760;48.822;9.304;2023-02-01T19:12:33;7.10;99.90
1534;DHT22;760;48.822;9.304;2023-02-01T19:15:00;7.10;99.90
1534;DHT22;760;48.822;9.304;2023-02-01T19:17:27;7.10;99.90
1534;DHT22;760;48.822;9.304;2023-02-01T19:19:53;7.10;99.90
1534;DHT22;760;48.822;9.304;2023-02-01T19:22:19;7.10;99.90
1534;DHT22;760;48.822;9.304;2023-02-01T19:24:44;7.10;99.90
1534;DHT22;760;48.822;9.304;2023-02-01T19:27:10;7.00;99.90
1534;DHT22;760;48.822;9.304;2023-02-01T19:29:36;7.00;99.90
1534;DHT22;760;48.822;9.304;2023-02-01T19:32:06;7.00;99.90
1534;DHT22;760;48.822;9.304;2023-02-01T19:34:31;7.00;99.90
1534;DHT22;760;48.822;9.304;2023-02-01T19:36:58;7.00;99.90
1534;DHT22;760;48.822;9.304;2023-02-01T19:39:24;6.90;99.90
1534;DHT22;760;48.822;9.304;2023-02-01T19:41:50;6.90;99.90
1534;DHT22;760;48.822;9.304;2023-02-01T19:44:17;6.90;99.90
1534;DHT22;760;48.822;9.304;2023-02-01T19:46:44;6.90;99.90
1534;DHT22;760;48.822;9.304;2023-02-01T19:49:09;6.90;99.90
1534;DHT22;760;48.822;9.304;2023-02-01T19:51:39;6.80;99.90
1534;DHT22;760;48.822;9.304;2023-02-01T19:54:07;6.90;99.90
1534;DHT22;760;48.822;9.304;2023-02-01T19:56:34;6.80;99.90
1534;DHT22;760;48.822;9.304;2023-02-01T19:59:00;6.90;99.90
1534;DHT22;760;48.822;9.304;2023-02-01T20:01:26;6.80;99.90
1534;DHT22;760;48.822;9.304;2023-02-01T20:03:52;6.80;99.90
1534;DHT22;760;48.822;9.304;2023-02-01T20:06:18;6.80;99.90
1534;DHT22;760;48.822;9.304;2023-02-01T20:08:43;6.80;99.90
1534;DHT22;760;48.822;9.304;2023-02-01T20:11:09;6.80;99.90
1534;DHT22;760;48.822;9.304;2023-02-01T20:13:35;6.80;99.90
1534;DHT22;760;48.822;9.304;2023-02-01T20:16:05;6.80;99.90
1534;DHT22;760;48.822;9.304;2023-02-01T20:18:30;6.80;99.90
1534;DHT22;760;48.822;9.304;2023-02-01T20:20:59;6.90;99.90
1534;DHT22;760;48.822;9.304;2023-02-01T20:23:25;6.90;99.90
1534;DHT22;760;48.822;9.304;2023-02-01T20:25:52;6.90;99.90
1534;DHT22;760;48.822;9.304;2023-02-01T20:28:18;7.00;99.90
1534;DHT22;760;48.822;9.304;2023-02-01T20:30:44;7.00;99.90
1534;DHT22;760;48.822;9.304;2023-02-01T20:33:10;7.00;99.90
1534;DHT22;760;48.822;9.304;2023-02-01T20:35:36;7.00;99.90
1534;DHT22;760;48.822;9.304;2023-02-01T20:38:02;7.00;99.90
1534;DHT22;760;48.822;9.304;2023-02-01T20:40:28;7.00;99.90
1534;DHT22;760;48.822;9.304;2023-02-01T20:42:55;7.10;99.90
1534;DHT22;760;48.822;9.304;2023-02-01T20:45:22;7.10;99.90
1534;DHT22;760;48.822;9.304;2023-02-01T20:47:48;7.10;99.90
1534;DHT22;760;48.822;9.304;2023-02-01T20:50:15;7.10;99.90
1534;DHT22;760;48.822;9.304;2023-02-01T20:52:41;7.10;99.90
1534;DHT22;760;48.822;9.304;2023-02-01T20:55:07;7.10;99.90
1534;DHT22;760;48.822;9.304;2023-02-01T20:57:34;7.10;99.90
1534;DHT22;760;48.822;9.304;2023-02-01T20:59:59;7.10;99.90
1534;DHT22;760;48.822;9.304;2023-02-01T21:02:25;7.10;99.90
1534;DHT22;760;48.822;9.304;2023-02-01T21:04:51;7.10;99.90
1534;DHT22;760;48.822;9.304;2023-02-01T21:07:17;7.10;99.90
1534;DHT22;760;48.822;9.304;2023-02-01T21:09:42;7.20;99.90
1534;DHT22;760;48.822;9.304;2023-02-01T21:12:09;7.20;99.90
1534;DHT22;760;48.822;9.304;2023-02-01T21:14:35;7.20;99.90
1534;DHT22;760;48.822;9.304;2023-02-01T21:17:00;7.20;99.90
1534;DHT22;760;48.822;9.304;2023-02-01T21:19:26;7.20;99.90
1534;DHT22;760;48.822;9.304;2023-02-01T21:21:52;7.20;99.90
1534;DHT22;760;48.822;9.304;2023-02-01T21:24:19;7.20;99.90
1534;DHT22;760;48.822;9.304;2023-02-01T21:26:44;7.20;99.90
1534;DHT22;760;48.822;9.304;2023-02-01T21:29:13;7.20;99.90
1534;DHT22;760;48.822;9.304;2023-02-01T21:31:40;7.30;99.90
1534;DHT22;760;48.822;9.304;2023-02-01T21:34:06;7.30;99.90
1534;DHT22;760;48.822;9.304;2023-02-01T21:36:33;7.30;99.90
1534;DHT22;760;48.822;9.304;2023-02-01T21:38:59;7.30;99.90
1534;DHT22;760;48.822;9.304;2023-02-01T21:41:28;7.30;99.90
1534;DHT22;760;48.822;9.304;2023-02-01T21:44:13;7.30;99.90
1534;DHT22;760;48.822;9.304;2023-02-01T21:46:42;7.30;99.90
1534;DHT22;760;48.822;9.304;2023-02-01T21:49:09;7.40;99.90
1534;DHT22;760;48.822;9.304;2023-02-01T21:51:35;7.40;99.90
1534;DHT22;760;48.822;9.304;2023-02-01T21:54:03;7.30;99.90
1534;DHT22;760;48.822;9.304;2023-02-01T21:56:29;7.30;99.90
1534;DHT22;760;48.822;9.304;2023-02-01T21:58:55;7.30;99.90
1534;DHT22;760;48.822;9.304;2023-02-01T22:01:21;7.30;99.90
1534;DHT22;760;48.822;9.304;2023-02-01T22:03:48;7.40;99.90
1534;DHT22;760;48.822;9.304;2023-02-01T22:06:33;7.40;99.90
1534;DHT22;760;48.822;9.304;2023-02-01T22:08:59;7.30;99.90
1534;DHT22;760;48.822;9.304;2023-02-01T22:11:25;7.30;99.90
1534;DHT22;760;48.822;9.304;2023-02-01T22:13:51;7.30;99.90
1534;DHT22;760;48.822;9.304;2023-02-01T22:16:17;7.30;99.90
1534;DHT22;760;48.822;9.304;2023-02-01T22:18:47;7.30;99.90
1534;DHT22;760;48.822;9.304;2023-02-01T22:21:13;7.30;99.90
1534;DHT22;760;48.822;9.304;2023-02-01T22:23:39;7.30;99.90
1534;DHT22;760;48.822;9.304;2023-02-01T22:26:06;7.30;99.90
1534;DHT22;760;48.822;9.304;2023-02-01T22:28:36;7.30;99.90
1534;DHT22;760;48.822;9.304;2023-02-01T22:31:04;7.30;99.90
1534;DHT22;760;48.822;9.304;2023-02-01T22:33:31;7.30;99.90
1534;DHT22;760;48.822;9.304;2023-02-01T22:35:58;7.40;99.90
1534;DHT22;760;48.822;9.304;2023-02-01T22:38:24;7.40;99.90
1534;DHT22;760;48.822;9.304;2023-02-01T22:41:08;7.40;99.90
1534;DHT22;760;48.822;9.304;2023-02-01T22:43:34;7.40;99.90
1534;DHT22;760;48.822;9.304;2023-02-01T22:46:03;7.40;99.90
1534;DHT22;760;48.822;9.304;2023-02-01T22:48:30;7.40;99.90
1534;DHT22;760;48.822;9.304;2023-02-01T22:50:59;7.30;99.90
1534;DHT22;760;48.822;9.304;2023-02-01T22:53:26;7.30;99.90
1534;DHT22;760;48.822;9.304;2023-02-01T22:55:52;7.30;99.90
1534;DHT22;760;48.822;9.304;2023-02-01T22:58:24;7.30;99.90
